createdAt,value
2019-04-14T00:00:44.839Z,81.80
2019-04-14T00:02:33.722Z,81.40
2019-04-14T00:04:14.651Z,81.70
2019-04-14T00:05:53.859Z,81.40
2019-04-14T00:07:30.498Z,81.80
2019-04-14T00:09:11.841Z,81.70
2019-04-14T00:10:48.650Z,81.50
2019-04-14T00:12:25.242Z,82.10
2019-04-14T00:14:03.103Z,81.80
2019-04-14T00:15:45.092Z,81.70
2019-04-14T00:17:17.389Z,81.80
2019-04-14T00:18:53.885Z,80.90
2019-04-14T00:20:31.524Z,80.10
2019-04-14T00:22:07.961Z,80.70
2019-04-14T00:23:45.543Z,80.40
2019-04-14T00:25:22.084Z,79.90
2019-04-14T00:26:59.470Z,80.20
2019-04-14T00:28:35.982Z,80.10
2019-04-14T00:30:14.407Z,80.00
2019-04-14T00:31:53.441Z,79.20
2019-04-14T00:33:30.175Z,79.90
2019-04-14T00:35:08.133Z,79.40
2019-04-14T00:36:45.859Z,80.00
2019-04-14T00:38:28.078Z,80.30
2019-04-14T00:40:08.703Z,80.30
2019-04-14T00:42:04.713Z,80.40
2019-04-14T00:43:51.379Z,80.40
2019-04-14T00:45:38.328Z,79.60
2019-04-14T00:47:09.352Z,79.60
2019-04-14T00:48:47.545Z,78.90
2019-04-14T00:50:23.876Z,79.00
2019-04-14T00:52:01.428Z,78.90
2019-04-14T00:53:38.203Z,78.80
2019-04-14T00:55:14.647Z,78.20
2019-04-14T00:56:51.946Z,78.10
2019-04-14T00:58:28.379Z,77.40
2019-04-14T01:00:10.350Z,77.70
2019-04-14T01:01:46.832Z,76.90
2019-04-14T01:03:24.279Z,76.60
2019-04-14T01:05:00.833Z,75.90
2019-04-14T01:06:38.203Z,75.30
2019-04-14T01:08:14.212Z,76.20
2019-04-14T01:09:51.015Z,75.90
2019-04-14T01:11:27.502Z,76.20
2019-04-14T01:13:05.836Z,75.60
2019-04-14T01:14:43.148Z,75.60
2019-04-14T01:16:23.090Z,75.50
2019-04-14T01:17:57.765Z,74.80
2019-04-14T01:19:35.120Z,75.20
2019-04-14T01:21:13.138Z,75.10
2019-04-14T01:22:50.897Z,76.10
2019-04-14T01:24:27.291Z,75.30
2019-04-14T01:26:04.927Z,75.40
2019-04-14T01:27:42.805Z,75.10
2019-04-14T01:29:19.384Z,75.80
2019-04-14T01:30:56.617Z,74.80
2019-04-14T01:32:33.108Z,75.00
2019-04-14T01:34:10.743Z,74.40
2019-04-14T01:35:47.239Z,74.30
2019-04-14T01:37:24.691Z,74.40
2019-04-14T01:39:02.451Z,74.30
2019-04-14T01:40:40.157Z,74.50
2019-04-14T01:42:17.869Z,75.70
2019-04-14T01:43:54.422Z,74.50
2019-04-14T01:45:31.680Z,73.90
2019-04-14T01:47:08.126Z,74.50
2019-04-14T01:48:45.372Z,74.20
2019-04-14T01:50:23.552Z,74.90
2019-04-14T01:52:10.318Z,74.90
2019-04-14T01:53:51.234Z,75.10
2019-04-14T01:55:33.099Z,74.90
2019-04-14T01:57:17.612Z,75.30
2019-04-14T01:58:55.742Z,74.90
2019-04-14T02:00:31.957Z,74.80
2019-04-14T02:02:11.880Z,74.60
2019-04-14T02:03:48.403Z,74.90
2019-04-14T02:05:25.659Z,74.80
2019-04-14T02:07:02.043Z,74.60
2019-04-14T02:08:39.335Z,74.00
2019-04-14T02:10:15.784Z,74.10
2019-04-14T02:11:53.102Z,74.30
2019-04-14T02:13:29.588Z,74.10
2019-04-14T02:15:09.097Z,73.60
2019-04-14T02:16:50.827Z,73.60
2019-04-14T02:18:23.510Z,73.60
2019-04-14T02:19:59.471Z,73.80
2019-04-14T02:21:36.693Z,73.40
2019-04-14T02:23:14.571Z,73.30
2019-04-14T02:24:51.125Z,73.10
2019-04-14T02:26:28.573Z,73.20
2019-04-14T02:28:05.259Z,73.20
2019-04-14T02:29:42.887Z,73.10
2019-04-14T02:31:35.759Z,72.40
2019-04-14T02:33:36.322Z,72.70
2019-04-14T02:35:03.008Z,72.70
2019-04-14T02:36:52.440Z,73.00
2019-04-14T02:38:36.080Z,73.60
2019-04-14T02:41:35.930Z,72.00
2019-04-14T02:43:27.604Z,72.30
2019-04-14T02:44:51.937Z,72.70
2019-04-14T02:46:41.943Z,71.90
2019-04-14T02:48:33.353Z,71.90
2019-04-14T02:51:29.522Z,71.50
2019-04-14T02:53:11.710Z,72.00
2019-04-14T02:56:23.848Z,70.90
2019-04-14T02:58:04.320Z,71.00
2019-04-14T02:59:37.084Z,71.60
2019-04-14T03:01:26.073Z,71.70
2019-04-14T03:02:47.293Z,70.80
2019-04-14T03:04:26.430Z,71.30
2019-04-14T03:06:05.686Z,71.60
2019-04-14T03:07:46.884Z,71.40
2019-04-14T03:09:36.388Z,71.20
2019-04-14T03:11:03.056Z,71.40
2019-04-14T03:12:40.580Z,71.00
2019-04-14T03:14:25.450Z,71.10
2019-04-14T03:16:07.808Z,71.00
2019-04-14T03:18:00.087Z,71.20
2019-04-14T03:20:07.066Z,71.00
2019-04-14T03:21:43.437Z,71.40
2019-04-14T03:23:24.963Z,71.00
2019-04-14T03:24:53.864Z,71.60
2019-04-14T03:26:51.897Z,71.40
2019-04-14T03:28:36.497Z,71.40
2019-04-14T03:30:39.032Z,71.00
2019-04-14T03:35:36.078Z,71.70
2019-04-14T03:38:24.633Z,72.10
2019-04-14T03:40:05.869Z,72.10
2019-04-14T03:41:36.680Z,71.30
2019-04-14T03:43:24.910Z,71.70
2019-04-14T03:44:56.480Z,71.80
2019-04-14T03:46:41.568Z,71.70
2019-04-14T03:54:40.434Z,72.40
2019-04-14T03:56:05.739Z,71.80
2019-04-14T03:57:39.842Z,72.30
2019-04-14T03:59:17.491Z,72.20
2019-04-14T04:00:53.990Z,72.70
2019-04-14T04:02:31.461Z,72.90
2019-04-14T04:04:07.888Z,73.20
2019-04-14T04:05:45.562Z,72.40
2019-04-14T04:07:22.108Z,72.00
2019-04-14T04:08:59.575Z,72.40
2019-04-14T04:10:37.943Z,72.40
2019-04-14T04:12:14.393Z,73.30
2019-04-14T04:13:51.940Z,72.80
2019-04-14T04:15:28.488Z,72.30
2019-04-14T04:17:16.802Z,72.60
2019-04-14T04:19:01.919Z,72.70
2019-04-14T04:20:37.076Z,73.10
2019-04-14T04:22:32.586Z,73.20
2019-04-14T04:24:10.811Z,73.10
2019-04-14T04:25:48.825Z,72.80
2019-04-14T04:27:33.028Z,73.30
2019-04-14T04:29:17.906Z,73.10
2019-04-14T04:31:13.433Z,73.90
2019-04-14T04:32:55.859Z,72.10
2019-04-14T04:34:34.007Z,72.70
2019-04-14T04:36:11.989Z,72.30
2019-04-14T04:37:52.673Z,72.30
2019-04-14T04:39:33.399Z,72.90
2019-04-14T04:41:10.031Z,72.40
2019-04-14T04:42:46.510Z,72.40
2019-04-14T04:44:22.849Z,72.30
2019-04-14T04:46:00.498Z,72.20
2019-04-14T04:47:36.763Z,72.40
2019-04-14T04:49:18.293Z,72.20
2019-04-14T04:50:52.019Z,72.70
2019-04-14T04:52:28.329Z,71.90
2019-04-14T04:54:05.974Z,72.60
2019-04-14T04:55:42.405Z,72.10
2019-04-14T04:57:19.918Z,72.20
2019-04-14T04:58:56.744Z,72.60
2019-04-14T05:00:33.333Z,72.70
2019-04-14T05:02:09.601Z,73.20
2019-04-14T05:03:46.914Z,72.20
2019-04-14T05:06:20.858Z,72.40
2019-04-14T05:07:56.072Z,72.10
2019-04-14T05:09:36.225Z,72.70
2019-04-14T05:11:25.098Z,72.10
2019-04-14T05:13:03.276Z,72.60
2019-04-14T05:14:58.592Z,71.30
2019-04-14T05:16:35.295Z,71.60
2019-04-14T05:18:13.386Z,70.90
2019-04-14T05:19:49.787Z,70.10
2019-04-14T05:21:26.188Z,69.60
2019-04-14T05:23:03.654Z,69.40
2019-04-14T05:24:40.214Z,68.90
2019-04-14T05:26:17.700Z,68.50
2019-04-14T05:27:54.377Z,68.20
2019-04-14T05:29:31.793Z,67.70
2019-04-14T05:31:08.202Z,66.70
2019-04-14T05:32:45.531Z,65.90
2019-04-14T05:34:21.893Z,66.20
2019-04-14T05:35:58.296Z,64.00
2019-04-14T05:37:35.681Z,64.10
2019-04-14T05:39:12.155Z,64.30
2019-04-14T05:40:49.571Z,61.70
2019-04-14T05:42:27.204Z,61.80
2019-04-14T05:44:05.244Z,61.90
2019-04-14T05:45:42.213Z,62.70
2019-04-14T05:47:19.679Z,62.20
2019-04-14T05:48:56.250Z,63.20
2019-04-14T05:50:33.501Z,64.20
2019-04-14T05:52:09.999Z,63.90
2019-04-14T05:53:46.466Z,63.70
2019-04-14T05:55:22.692Z,63.50
2019-04-14T05:57:00.101Z,63.60
2019-04-14T05:58:36.500Z,63.50
2019-04-14T06:00:14.928Z,63.90
2019-04-14T06:01:51.224Z,62.80
2019-04-14T06:03:27.827Z,63.20
2019-04-14T06:05:04.301Z,62.00
2019-04-14T06:06:40.736Z,62.40
2019-04-14T06:08:17.217Z,62.50
2019-04-14T06:09:53.738Z,61.80
2019-04-14T06:11:30.244Z,61.50
2019-04-14T06:13:06.685Z,62.20
2019-04-14T06:14:43.088Z,61.00
2019-04-14T06:16:19.523Z,62.00
2019-04-14T06:17:56.010Z,60.80
2019-04-14T06:19:37.939Z,60.30
2019-04-14T06:21:10.458Z,58.20
2019-04-14T06:22:46.847Z,58.00
2019-04-14T06:24:23.289Z,57.40
2019-04-14T06:25:59.717Z,56.90
2019-04-14T06:27:37.036Z,57.10
2019-04-14T06:29:13.454Z,55.80
2019-04-14T06:30:51.331Z,55.10
2019-04-14T06:32:35.526Z,55.10
2019-04-14T06:34:29.878Z,56.60
2019-04-14T06:36:08.035Z,58.40
2019-04-14T06:38:05.822Z,57.20
2019-04-14T06:39:44.112Z,57.90
2019-04-14T06:41:20.617Z,58.10
2019-04-14T06:42:57.101Z,57.40
2019-04-14T06:44:33.435Z,57.80
2019-04-14T06:46:09.769Z,54.70
2019-04-14T06:47:46.143Z,55.00
2019-04-14T06:49:22.379Z,54.40
2019-04-14T06:50:58.795Z,54.10
2019-04-14T06:52:35.057Z,52.90
2019-04-14T06:54:11.505Z,53.20
2019-04-14T06:55:47.916Z,52.80
2019-04-14T06:57:24.311Z,52.40
2019-04-14T06:59:00.725Z,52.70
2019-04-14T07:00:36.978Z,52.80
2019-04-14T07:02:13.310Z,53.70
2019-04-14T07:03:49.818Z,54.70
2019-04-14T07:05:26.200Z,54.10
2019-04-14T07:07:02.532Z,55.50
2019-04-14T07:08:38.940Z,53.80
2019-04-14T07:10:15.385Z,54.40
2019-04-14T07:11:51.798Z,54.30
2019-04-14T07:13:28.197Z,53.70
2019-04-14T07:15:06.308Z,54.20
2019-04-14T07:16:42.738Z,54.50
2019-04-14T07:18:19.039Z,55.20
2019-04-14T07:20:02.386Z,54.40
2019-04-14T07:21:34.527Z,53.90
2019-04-14T07:23:11.005Z,54.30
2019-04-14T07:24:47.450Z,55.40
2019-04-14T07:26:23.810Z,54.60
2019-04-14T07:28:00.127Z,55.50
2019-04-14T07:29:43.868Z,55.70
2019-04-14T07:31:19.890Z,56.50
2019-04-14T07:32:57.969Z,55.90
2019-04-14T07:34:38.820Z,55.40
2019-04-14T07:36:29.193Z,55.50
2019-04-14T07:38:07.279Z,55.90
2019-04-14T07:39:51.343Z,56.20
2019-04-14T07:41:30.492Z,56.60
2019-04-14T07:43:08.569Z,56.60
2019-04-14T07:44:53.462Z,56.60
2019-04-14T07:46:34.454Z,57.00
2019-04-14T07:48:12.402Z,56.50
2019-04-14T07:50:00.838Z,56.00
2019-04-14T07:51:56.067Z,56.80
2019-04-14T07:53:34.115Z,55.60
2019-04-14T07:55:24.596Z,54.00
2019-04-14T07:57:08.172Z,53.80
2019-04-14T07:58:48.944Z,54.80
2019-04-14T08:00:30.881Z,53.90
2019-04-14T08:02:15.918Z,53.20
2019-04-14T08:04:10.392Z,54.30
2019-04-14T08:05:46.774Z,52.30
2019-04-14T08:08:00.553Z,51.40
2019-04-14T08:09:36.991Z,52.60
2019-04-14T08:11:13.506Z,51.80
2019-04-14T08:12:49.892Z,51.80
2019-04-14T08:14:26.310Z,50.70
2019-04-14T08:16:02.839Z,50.80
2019-04-14T08:17:39.272Z,49.70
2019-04-14T08:19:15.698Z,49.80
2019-04-14T08:20:52.244Z,48.90
2019-04-14T08:22:28.563Z,49.90
2019-04-14T08:24:05.017Z,48.40
2019-04-14T08:25:41.440Z,48.70
2019-04-14T08:27:17.757Z,47.90
2019-04-14T08:28:54.024Z,48.00
2019-04-14T08:30:30.410Z,46.80
2019-04-14T08:32:06.919Z,46.30
2019-04-14T08:33:43.343Z,46.20
2019-04-14T08:35:19.811Z,45.90
2019-04-14T08:36:56.066Z,45.90
2019-04-14T08:38:32.487Z,45.90
2019-04-14T08:40:09.303Z,45.30
2019-04-14T08:41:48.694Z,46.50
2019-04-14T08:43:43.261Z,45.60
2019-04-14T08:45:21.320Z,45.90
2019-04-14T08:47:00.289Z,44.50
2019-04-14T08:48:48.276Z,43.40
2019-04-14T08:50:38.940Z,44.70
2019-04-14T08:52:23.937Z,45.50
2019-04-14T08:54:09.879Z,45.50
2019-04-14T08:56:15.282Z,45.00
2019-04-14T08:57:53.379Z,45.90
2019-04-14T08:59:40.470Z,44.20
2019-04-14T09:01:24.811Z,44.80
2019-04-14T09:03:11.601Z,44.70
2019-04-14T09:04:49.175Z,45.10
2019-04-14T09:06:27.235Z,44.10
2019-04-14T09:08:09.603Z,44.40
2019-04-14T09:09:47.831Z,44.20
2019-04-14T09:11:28.879Z,44.10
2019-04-14T09:13:05.198Z,44.80
2019-04-14T09:14:41.621Z,44.20
2019-04-14T09:16:18.046Z,43.90
2019-04-14T09:17:54.594Z,42.40
2019-04-14T09:19:31.022Z,41.40
2019-04-14T09:21:07.455Z,42.60
2019-04-14T09:22:43.916Z,42.50
2019-04-14T09:24:21.417Z,43.00
2019-04-14T09:25:57.844Z,41.80
2019-04-14T09:27:34.358Z,42.60
2019-04-14T09:29:11.222Z,41.00
2019-04-14T09:30:47.681Z,40.20
2019-04-14T09:32:24.662Z,40.20
2019-04-14T09:34:00.923Z,40.50
2019-04-14T09:35:37.274Z,40.40
2019-04-14T09:37:13.776Z,40.70
2019-04-14T09:38:50.101Z,40.20
2019-04-14T09:40:26.629Z,40.50
2019-04-14T09:42:03.763Z,40.00
2019-04-14T09:43:40.279Z,39.70
2019-04-14T09:45:16.812Z,40.80
2019-04-14T09:46:53.241Z,40.60
2019-04-14T09:48:29.682Z,40.50
2019-04-14T09:50:07.407Z,40.70
2019-04-14T09:51:43.920Z,39.90
2019-04-14T09:53:20.362Z,41.10
2019-04-14T09:54:56.772Z,41.60
2019-04-14T09:56:33.464Z,41.70
2019-04-14T09:58:09.807Z,41.40
2019-04-14T09:59:46.343Z,41.20
2019-04-14T10:01:23.433Z,41.30
2019-04-14T10:02:59.749Z,42.10
2019-04-14T10:04:36.172Z,41.20
2019-04-14T10:06:12.531Z,40.90
2019-04-14T10:07:48.947Z,41.00
2019-04-14T10:09:25.389Z,41.40
2019-04-14T10:11:01.746Z,40.60
2019-04-14T10:12:38.159Z,41.00
2019-04-14T10:14:14.577Z,40.90
2019-04-14T10:15:52.041Z,40.90
2019-04-14T10:17:28.637Z,41.00
2019-04-14T10:19:05.168Z,40.70
2019-04-14T10:20:41.614Z,38.40
2019-04-14T10:22:18.090Z,39.00
2019-04-14T10:23:54.515Z,39.30
2019-04-14T10:25:30.866Z,39.20
2019-04-14T10:27:07.296Z,39.60
2019-04-14T10:28:43.650Z,39.40
2019-04-14T10:30:20.096Z,37.70
2019-04-14T10:31:56.642Z,36.70
2019-04-14T10:33:33.044Z,37.00
2019-04-14T10:35:09.457Z,37.30
2019-04-14T10:36:45.848Z,36.90
2019-04-14T10:38:22.231Z,38.10
2019-04-14T10:39:58.491Z,37.70
2019-04-14T10:41:35.970Z,37.50
2019-04-14T10:43:12.436Z,36.50
2019-04-14T10:44:48.903Z,36.30
2019-04-14T10:46:25.342Z,37.00
2019-04-14T10:48:01.768Z,37.80
2019-04-14T10:49:38.201Z,35.50
2019-04-14T10:51:14.619Z,34.90
2019-04-14T10:52:50.500Z,33.70
2019-04-14T10:54:26.943Z,34.40
2019-04-14T10:56:03.372Z,34.00
2019-04-14T10:57:39.874Z,34.20
2019-04-14T10:59:16.273Z,34.50
2019-04-14T11:00:52.799Z,34.20
2019-04-14T11:02:29.235Z,33.20
2019-04-14T11:04:07.984Z,32.90
2019-04-14T11:05:57.333Z,34.30
2019-04-14T11:07:33.659Z,35.20
2019-04-14T11:09:14.891Z,34.90
2019-04-14T11:10:51.304Z,33.70
2019-04-14T11:12:27.618Z,34.60
2019-04-14T11:14:04.144Z,33.00
2019-04-14T11:15:40.569Z,32.30
2019-04-14T11:17:17.018Z,31.20
2019-04-14T11:18:53.432Z,31.90
2019-04-14T11:20:29.879Z,31.90
2019-04-14T11:22:06.215Z,32.20
2019-04-14T11:23:42.634Z,32.90
2019-04-14T11:25:19.060Z,33.90
2019-04-14T11:26:55.409Z,34.20
2019-04-14T11:28:31.821Z,35.50
2019-04-14T11:30:10.181Z,34.90
2019-04-14T11:31:49.222Z,34.70
2019-04-14T11:33:27.277Z,35.00
2019-04-14T11:35:05.546Z,35.20
2019-04-14T11:36:59.763Z,36.50
2019-04-14T11:38:52.889Z,36.40
2019-04-14T11:40:34.767Z,36.70
2019-04-14T11:42:11.322Z,36.50
2019-04-14T11:43:47.786Z,36.90
2019-04-14T11:45:24.573Z,35.60
2019-04-14T11:47:00.978Z,35.10
2019-04-14T11:48:37.292Z,35.00
2019-04-14T11:50:13.818Z,35.30
2019-04-14T11:51:55.448Z,33.60
2019-04-14T11:53:29.422Z,34.40
2019-04-14T11:55:08.210Z,35.10
2019-04-14T11:56:44.661Z,35.30
2019-04-14T11:58:21.168Z,35.20
2019-04-14T12:00:06.726Z,35.10
2019-04-14T12:01:48.380Z,34.00
2019-04-14T12:03:26.345Z,33.90
2019-04-14T12:05:06.685Z,34.60
2019-04-14T12:06:57.978Z,34.20
2019-04-14T12:08:36.033Z,33.50
2019-04-14T12:10:13.423Z,34.20
2019-04-14T12:11:49.838Z,33.60
2019-04-14T12:13:26.286Z,32.50
2019-04-14T12:15:02.695Z,32.20
2019-04-14T12:16:39.316Z,32.20
2019-04-14T12:18:15.554Z,32.30
2019-04-14T12:19:51.976Z,32.30
2019-04-14T12:21:28.412Z,32.70
2019-04-14T12:23:05.019Z,32.20
2019-04-14T12:24:41.271Z,32.00
2019-04-14T12:26:17.797Z,31.50
2019-04-14T12:27:54.144Z,32.10
2019-04-14T12:29:30.580Z,30.20
2019-04-14T12:31:08.739Z,30.30
2019-04-14T12:32:46.225Z,29.90
2019-04-14T12:34:22.648Z,29.80
2019-04-14T12:36:00.125Z,30.20
2019-04-14T12:37:36.438Z,29.90
2019-04-14T12:39:23.336Z,31.30
2019-04-14T12:41:02.505Z,31.50
2019-04-14T12:42:40.319Z,31.90
2019-04-14T12:44:24.418Z,32.50
2019-04-14T12:46:19.739Z,32.10
2019-04-14T12:48:02.038Z,31.80
2019-04-14T12:49:45.861Z,32.20
2019-04-14T12:51:23.924Z,32.00
2019-04-14T12:53:00.301Z,30.70
2019-04-14T12:54:36.822Z,30.50
2019-04-14T12:56:14.879Z,32.20
2019-04-14T12:58:05.170Z,32.20
2019-04-14T12:59:41.621Z,33.00
2019-04-14T13:01:19.675Z,33.40
2019-04-14T13:02:57.231Z,32.40
2019-04-14T13:04:33.648Z,32.70
2019-04-14T13:06:09.962Z,32.30
2019-04-14T13:07:46.449Z,31.70
2019-04-14T13:09:22.872Z,31.70
2019-04-14T13:10:59.386Z,32.30
2019-04-14T13:12:37.592Z,32.10
2019-04-14T13:14:14.002Z,31.70
2019-04-14T13:15:50.426Z,33.30
2019-04-14T13:17:27.023Z,33.30
2019-04-14T13:19:03.453Z,33.10
2019-04-14T13:20:39.870Z,33.10
2019-04-14T13:22:16.385Z,32.30
2019-04-14T13:23:52.717Z,32.10
2019-04-14T13:25:29.220Z,32.10
2019-04-14T13:27:05.929Z,32.10
2019-04-14T13:28:42.429Z,33.00
2019-04-14T13:30:20.550Z,31.40
2019-04-14T13:31:56.961Z,32.20
2019-04-14T13:33:33.374Z,32.40
2019-04-14T13:35:09.999Z,32.20
2019-04-14T13:36:46.438Z,32.50
2019-04-14T13:38:22.914Z,32.20
2019-04-14T13:39:59.492Z,33.10
2019-04-14T13:41:36.812Z,32.10
2019-04-14T13:43:13.278Z,32.60
2019-04-14T13:44:49.729Z,31.90
2019-04-14T13:46:26.247Z,31.50
2019-04-14T13:48:02.599Z,31.60
2019-04-14T13:49:38.943Z,31.00
2019-04-14T13:51:15.386Z,31.80
2019-04-14T13:52:51.799Z,31.90
2019-04-14T13:54:28.214Z,32.00
2019-04-14T13:56:04.776Z,32.00
2019-04-14T13:57:41.192Z,32.10
2019-04-14T13:59:17.536Z,32.30
2019-04-14T14:00:53.970Z,32.60
2019-04-14T14:02:30.417Z,31.50
2019-04-14T14:04:07.022Z,31.90
2019-04-14T14:05:43.880Z,31.50
2019-04-14T14:07:20.606Z,31.80
2019-04-14T14:08:57.000Z,32.70
2019-04-14T14:10:33.420Z,33.10
2019-04-14T14:12:13.992Z,32.60
2019-04-14T14:16:22.313Z,32.10
2019-04-14T14:18:00.490Z,31.20
2019-04-14T14:19:38.551Z,31.40
2019-04-14T14:21:16.639Z,32.00
2019-04-14T14:22:59.554Z,32.50
2019-04-14T14:24:37.085Z,32.40
2019-04-14T14:26:20.954Z,32.80
2019-04-14T14:27:57.304Z,32.50
2019-04-14T14:29:33.644Z,32.40
2019-04-14T14:31:10.174Z,32.30
2019-04-14T14:32:47.690Z,31.90
2019-04-14T14:34:24.059Z,32.50
2019-04-14T14:36:00.680Z,32.50
2019-04-14T14:37:37.102Z,32.70
2019-04-14T14:39:15.169Z,32.70
2019-04-14T14:40:51.770Z,33.10
2019-04-14T14:42:28.193Z,32.70
2019-04-14T14:44:04.722Z,32.60
2019-04-14T14:45:51.766Z,33.10
2019-04-14T14:47:29.762Z,33.40
2019-04-14T14:49:20.207Z,32.70
2019-04-14T14:51:16.377Z,32.90
2019-04-14T14:52:52.829Z,33.10
2019-04-14T14:54:30.682Z,32.90
2019-04-14T14:56:08.649Z,33.10
2019-04-14T14:57:44.973Z,33.10
2019-04-14T14:59:21.322Z,33.00
2019-04-14T15:00:57.840Z,33.90
2019-04-14T15:02:35.283Z,33.40
2019-04-14T15:04:11.622Z,33.70
2019-04-14T15:05:47.964Z,34.20
2019-04-14T15:07:24.423Z,34.20
2019-04-14T15:09:00.838Z,33.80
2019-04-14T15:10:37.186Z,34.20
2019-04-14T15:12:14.681Z,33.50
2019-04-14T15:13:51.095Z,33.80
2019-04-14T15:15:27.607Z,34.10
2019-04-14T15:17:04.039Z,34.10
2019-04-14T15:18:40.451Z,34.00
2019-04-14T15:20:16.874Z,33.30
2019-04-14T15:21:53.288Z,32.90
2019-04-14T15:23:29.815Z,32.60
2019-04-14T15:25:07.134Z,33.00
2019-04-14T15:26:44.640Z,33.30
2019-04-14T15:28:21.092Z,32.60
2019-04-14T15:29:57.555Z,33.00
2019-04-14T15:31:33.965Z,32.80
2019-04-14T15:33:10.511Z,32.50
2019-04-14T15:34:47.074Z,32.80
2019-04-14T15:36:23.610Z,33.10
2019-04-14T15:38:00.026Z,33.30
2019-04-14T15:39:37.699Z,33.20
2019-04-14T15:41:14.274Z,32.70
2019-04-14T15:42:50.700Z,33.20
2019-04-14T15:44:30.340Z,33.20
2019-04-14T15:46:06.831Z,33.10
2019-04-14T15:47:43.258Z,32.80
2019-04-14T15:49:19.676Z,32.50
2019-04-14T15:50:56.006Z,31.90
2019-04-14T15:52:33.527Z,32.30
2019-04-14T15:54:09.774Z,32.20
2019-04-14T15:55:46.297Z,31.80
2019-04-14T15:57:42.584Z,32.30
2019-04-14T15:59:37.102Z,32.70
2019-04-14T16:01:18.983Z,32.70
2019-04-14T16:03:13.317Z,32.70
2019-04-14T16:05:07.827Z,32.40
2019-04-14T16:06:58.140Z,32.30
2019-04-14T16:08:36.166Z,32.60
2019-04-14T16:10:32.393Z,32.20
2019-04-14T16:12:08.638Z,32.70
2019-04-14T16:13:47.145Z,32.50
2019-04-14T16:15:24.558Z,33.10
2019-04-14T16:17:15.838Z,33.20
2019-04-14T16:18:56.879Z,33.00
2019-04-14T16:20:37.702Z,32.80
2019-04-14T16:22:14.097Z,32.80
2019-04-14T16:23:51.131Z,32.80
2019-04-14T16:25:41.630Z,33.00
2019-04-14T16:27:17.842Z,33.10
2019-04-14T16:28:58.632Z,33.30
2019-04-14T16:30:39.866Z,33.60
2019-04-14T16:32:28.377Z,33.30
2019-04-14T16:34:21.560Z,33.60
2019-04-14T16:35:58.449Z,33.80
2019-04-14T16:37:34.959Z,33.60
2019-04-14T16:39:11.655Z,33.70
2019-04-14T16:40:48.255Z,33.80
2019-04-14T16:42:25.779Z,34.60
2019-04-14T16:44:01.735Z,33.90
2019-04-14T16:45:43.045Z,34.00
2019-04-14T16:47:19.502Z,34.20
2019-04-14T16:48:55.849Z,34.20
2019-04-14T16:50:32.260Z,34.60
2019-04-14T16:52:11.364Z,34.90
2019-04-14T16:53:48.803Z,35.00
2019-04-14T16:55:29.407Z,35.00
2019-04-14T16:57:23.182Z,34.80
2019-04-14T16:59:01.381Z,35.10
2019-04-14T17:00:39.437Z,35.20
2019-04-14T17:02:15.854Z,35.50
2019-04-14T17:03:52.241Z,35.30
2019-04-14T17:05:28.599Z,35.40
2019-04-14T17:07:06.098Z,35.40
2019-04-14T17:08:42.520Z,35.70
2019-04-14T17:10:18.943Z,35.30
2019-04-14T17:11:55.292Z,35.80
2019-04-14T17:13:33.341Z,36.10
2019-04-14T17:15:12.693Z,36.20
2019-04-14T17:17:05.771Z,36.10
2019-04-14T17:18:46.779Z,36.60
2019-04-14T17:20:24.861Z,36.70
2019-04-14T17:22:18.753Z,36.80
2019-04-14T17:24:02.256Z,36.80
2019-04-14T17:25:39.092Z,37.00
2019-04-14T17:29:16.890Z,37.10
2019-04-14T17:30:54.946Z,37.10
2019-04-14T17:32:33.005Z,37.50
2019-04-14T17:34:16.772Z,37.90
2019-04-14T17:35:52.952Z,38.10
2019-04-14T17:37:43.117Z,38.10
2019-04-14T17:39:21.085Z,38.50
2019-04-14T17:41:04.131Z,38.90
2019-04-14T17:42:45.210Z,39.20
2019-04-14T17:44:34.882Z,38.90
2019-04-14T17:46:12.966Z,38.90
2019-04-14T17:48:03.280Z,39.10
2019-04-14T17:49:41.382Z,39.40
2019-04-14T17:51:22.308Z,39.70
2019-04-14T17:53:16.438Z,40.00
2019-04-14T17:54:57.724Z,40.30
2019-04-14T17:56:35.801Z,40.30
2019-04-14T17:58:22.986Z,40.50
2019-04-14T18:00:18.343Z,40.70
2019-04-14T18:02:02.646Z,40.90
2019-04-14T18:03:40.604Z,41.10
2019-04-14T18:05:35.216Z,41.20
2019-04-14T18:07:13.287Z,41.30
2019-04-14T18:08:58.594Z,41.80
2019-04-14T18:10:52.912Z,42.10
2019-04-14T18:12:33.843Z,42.30
2019-04-14T18:14:13.131Z,42.30
2019-04-14T18:15:58.070Z,42.60
2019-04-14T18:17:34.280Z,42.90
2019-04-14T18:19:18.327Z,43.20
2019-04-14T18:20:56.428Z,43.30
2019-04-14T18:22:32.843Z,43.60
2019-04-14T18:24:09.263Z,43.40
2019-04-14T18:25:45.594Z,43.60
2019-04-14T18:27:22.193Z,43.80
2019-04-14T18:28:58.426Z,43.90
2019-04-14T18:30:39.290Z,44.10
2019-04-14T18:32:34.195Z,44.10
2019-04-14T18:35:02.751Z,44.40
2019-04-14T18:36:40.231Z,44.60
2019-04-14T18:38:20.892Z,45.00
2019-04-14T18:40:05.088Z,45.30
2019-04-14T18:41:52.537Z,45.20
2019-04-14T18:43:48.793Z,45.30
2019-04-14T18:45:33.099Z,45.20
2019-04-14T18:47:09.310Z,45.80
2019-04-14T18:48:50.357Z,45.70
2019-04-14T18:50:34.156Z,45.60
2019-04-14T18:52:12.084Z,45.80
2019-04-14T18:53:59.262Z,46.00
2019-04-14T18:55:53.506Z,46.20
2019-04-14T18:57:31.487Z,46.30
2019-04-14T18:59:16.568Z,46.90
2019-04-14T19:01:06.592Z,46.40
2019-04-14T19:02:43.187Z,46.50
2019-04-14T19:04:19.502Z,46.60
2019-04-14T19:05:55.913Z,46.90
2019-04-14T19:07:32.289Z,46.90
2019-04-14T19:09:09.097Z,47.00
2019-04-14T19:10:47.168Z,47.10
2019-04-14T19:12:34.419Z,47.20
2019-04-14T19:14:12.517Z,47.40
2019-04-14T19:15:50.608Z,47.20
2019-04-14T19:17:35.167Z,47.10
2019-04-14T19:19:12.545Z,47.30
2019-04-14T19:20:51.221Z,47.30
2019-04-14T19:22:27.775Z,47.40
2019-04-14T19:24:04.287Z,47.20
2019-04-14T19:25:40.801Z,47.40
2019-04-14T19:27:17.258Z,47.40
2019-04-14T19:28:53.899Z,47.20
2019-04-14T19:30:30.437Z,47.50
2019-04-14T19:32:06.750Z,47.00
2019-04-14T19:33:43.198Z,46.80
2019-04-14T19:35:19.689Z,46.80
2019-04-14T19:36:56.211Z,46.70
2019-04-14T19:38:32.800Z,46.60
2019-04-14T19:40:09.867Z,46.50
2019-04-14T19:41:46.377Z,46.40
2019-04-14T19:43:24.062Z,46.30
2019-04-14T19:45:00.902Z,46.10
2019-04-14T19:46:37.330Z,45.90
2019-04-14T19:48:13.747Z,45.60
2019-04-14T19:51:58.477Z,45.40
2019-04-14T19:53:34.909Z,46.20
2019-04-14T19:55:20.245Z,46.20
2019-04-14T19:56:49.380Z,46.20
2019-04-14T19:58:25.980Z,46.40
2019-04-14T20:00:02.406Z,47.10
2019-04-14T20:01:38.677Z,47.40
2019-04-14T20:03:15.185Z,47.80
2019-04-14T20:04:51.535Z,47.80
2019-04-14T20:06:28.053Z,47.90
2019-04-14T20:08:04.468Z,48.40
2019-04-14T20:09:40.983Z,48.40
2019-04-14T20:11:17.403Z,48.20
2019-04-14T20:12:53.826Z,48.40
2019-04-14T20:14:30.244Z,48.60
2019-04-14T20:16:14.160Z,48.70
2019-04-14T20:17:56.259Z,48.80
2019-04-14T20:19:45.234Z,49.00
2019-04-14T20:21:39.729Z,49.30
2019-04-14T20:23:20.953Z,49.50
2019-04-14T20:25:01.875Z,49.80
2019-04-14T20:26:37.998Z,49.80
2019-04-14T20:28:16.264Z,50.00
2019-04-14T20:29:57.120Z,50.40
2019-04-14T20:31:38.023Z,50.00
2019-04-14T20:33:14.378Z,50.40
2019-04-14T20:34:50.711Z,50.50
2019-04-14T20:36:27.132Z,51.10
2019-04-14T20:38:03.619Z,51.00
2019-04-14T20:39:40.453Z,51.40
2019-04-14T20:41:19.729Z,51.50
2019-04-14T20:42:56.207Z,51.50
2019-04-14T20:44:32.616Z,51.80
2019-04-14T20:46:10.127Z,52.00
2019-04-14T20:47:46.491Z,52.40
2019-04-14T20:49:23.003Z,52.40
2019-04-14T20:50:59.336Z,52.60
2019-04-14T20:52:35.646Z,52.70
2019-04-14T20:54:12.113Z,52.60
2019-04-14T20:55:48.528Z,52.70
2019-04-14T20:57:26.136Z,52.80
2019-04-14T20:59:03.653Z,52.70
2019-04-14T21:00:40.034Z,53.00
2019-04-14T21:02:28.522Z,53.30
2019-04-14T21:04:10.552Z,53.30
2019-04-14T21:05:52.549Z,53.40
2019-04-14T21:07:34.695Z,53.40
2019-04-14T21:09:15.816Z,53.50
2019-04-14T21:10:53.762Z,53.50
2019-04-14T21:12:34.665Z,53.50
2019-04-14T21:14:24.847Z,53.70
2019-04-14T21:16:12.503Z,53.90
2019-04-14T21:17:42.513Z,54.00
2019-04-14T21:19:26.448Z,53.90
2019-04-14T21:21:20.691Z,53.90
2019-04-14T21:22:58.760Z,54.00
2019-04-14T21:24:37.322Z,54.20
2019-04-14T21:26:15.529Z,54.10
2019-04-14T21:27:59.245Z,54.30
2019-04-14T21:29:37.252Z,54.40
2019-04-14T21:31:17.988Z,54.00
2019-04-14T21:32:56.119Z,54.10
2019-04-14T21:34:50.132Z,54.20
2019-04-14T21:36:32.202Z,54.40
2019-04-14T21:38:22.277Z,54.60
2019-04-14T21:40:18.366Z,54.70